Time;durP1;ratioP1;P1;durP2;ratioP2;P2;SDS_P1;SDS_P2;PMS_P1;PMS_P2;Temp;Humidity;BMP_temperature;BMP_pressure;BME280_temperature;BME280_humidity;BME280_pressure;Samples;Min_cycle;Max_cycle;Signal;HPM_P1;HPM_P2
2022/11/20 16:03:33;;;;;;;31.38;15.93;;;;;;;;;;6206360;28;20611;-77
2022/11/20 16:06:34;;;;;;;27.13;10.80;;;;;;;;;;6219888;28;20195;-78
2022/11/20 16:09:36;;;;;;;27.08;10.70;;;;;;;;;;6240058;28;20052;-78
2022/11/20 16:16:23;;;;;;;31.63;10.55;;;;;;;;;;6247560;28;20064;-77
2022/11/20 16:19:25;;;;;;;36.08;13.23;;;;;;;;;;6245190;28;21882;-78
2022/11/20 16:22:27;;;;;;;31.70;10.70;;;;;;;;;;6239443;28;20098;-79
2022/11/20 16:25:31;;;;;;;26.60;9.13;;;;;;;;;;6242741;28;20187;-77
2022/11/20 16:28:33;;;;;;;35.28;14.63;;;;;;;;;;6241480;28;20049;-83
2022/11/20 16:31:36;;;;;;;;;;;;;;;;;;6242292;28;20054;-80
2022/11/20 16:34:38;;;;;;;33.63;11.02;;;;;;;;;;6238058;28;19921;-81
2022/11/20 16:37:41;;;;;;;38.53;13.38;;;;;;;;;;6224236;28;20176;-79
2022/11/20 16:40:43;;;;;;;54.95;21.08;;;;;;;;;;6234093;28;20037;-80
2022/11/20 16:43:47;;;;;;;40.65;13.60;;;;;;;;;;6232646;28;20074;-81
2022/11/20 16:46:48;;;;;;;;;;;;;;;;;;6229529;28;20134;-81
2022/11/20 16:49:50;;;;;;;96.68;29.88;;;;;;;;;;6239352;28;19964;-81
2022/11/20 16:52:52;;;;;;;30.58;11.73;;;;;;;;;;6235805;28;20640;-81
2022/11/20 16:55:54;;;;;;;43.97;14.65;;;;;;;;;;6232995;28;20042;-81
2022/11/20 16:58:58;;;;;;;37.85;12.75;;;;;;;;;;6228465;28;20534;-83
2022/11/20 17:01:59;;;;;;;261.30;78.63;;;;;;;;;;6234579;28;20057;-81
2022/11/20 17:05:01;;;;;;;46.63;17.10;;;;;;;;;;6224319;28;20049;-81
2022/11/20 17:08:03;;;;;;;43.50;14.85;;;;;;;;;;6250690;28;20102;-81
2022/11/20 17:11:09;;;;;;;46.40;13.80;;;;;;;;;;6233575;28;20126;-80
2022/11/20 17:14:11;;;;;;;37.53;15.85;;;;;;;;;;6222942;28;20105;-81
2022/11/20 17:17:13;;;;;;;37.85;13.73;;;;;;;;;;6221015;28;20053;-81
2022/11/20 17:20:18;;;;;;;40.58;14.48;;;;;;;;;;6209256;28;20073;-81
2022/11/20 17:23:20;;;;;;;39.38;12.27;;;;;;;;;;6224847;28;20048;-81
2022/11/20 17:26:23;;;;;;;39.13;14.82;;;;;;;;;;6214596;28;20060;-81
2022/11/20 17:29:24;;;;;;;37.22;12.88;;;;;;;;;;6214163;28;20160;-81
2022/11/20 17:32:27;;;;;;;47.33;14.70;;;;;;;;;;6237443;28;20052;-81
2022/11/20 17:35:29;;;;;;;40.40;15.82;;;;;;;;;;6213654;28;20192;-83
2022/11/20 17:38:30;;;;;;;46.28;17.98;;;;;;;;;;6195481;28;20048;-82
2022/11/20 17:41:33;;;;;;;39.25;14.60;;;;;;;;;;6210897;28;20056;-81
2022/11/20 17:44:35;;;;;;;40.33;16.77;;;;;;;;;;6216782;28;20092;-82
2022/11/20 17:47:36;;;;;;;37.05;13.65;;;;;;;;;;6198691;28;20116;-81
2022/11/20 17:50:38;;;;;;;44.67;17.65;;;;;;;;;;6200047;28;20564;-80
2022/11/20 17:53:41;;;;;;;44.80;14.35;;;;;;;;;;6208246;28;20056;-81
2022/11/20 18:00:07;;;;;;;31.40;11.63;;;;;;;;;;6213954;28;20179;-82
2022/11/20 18:03:08;;;;;;;34.22;12.05;;;;;;;;;;6240855;28;20474;-82
2022/11/20 18:06:19;;;;;;;35.95;15.05;;;;;;;;;;6202938;28;20050;-82
2022/11/20 18:09:20;;;;;;;33.72;12.00;;;;;;;;;;6217265;28;20045;-82
2022/11/20 18:12:22;;;;;;;37.10;13.43;;;;;;;;;;6211377;28;20057;-82
2022/11/20 18:15:24;;;;;;;32.45;11.55;;;;;;;;;;6208801;28;20049;-82
2022/11/20 18:18:26;;;;;;;36.92;10.93;;;;;;;;;;6206446;28;20112;-82
2022/11/20 18:21:29;;;;;;;25.98;9.50;;;;;;;;;;6207510;28;20175;-83
2022/11/20 18:24:31;;;;;;;26.95;10.50;;;;;;;;;;6213055;28;20045;-83
2022/11/20 18:27:33;;;;;;;30.93;10.17;;;;;;;;;;6253799;28;20045;-83
2022/11/20 18:30:35;;;;;;;27.70;10.52;;;;;;;;;;6193141;28;20231;-83
2022/11/20 18:33:40;;;;;;;63.13;24.38;;;;;;;;;;6221788;28;20091;-82
2022/11/20 18:36:43;;;;;;;47.40;18.25;;;;;;;;;;6219419;28;20114;-82
2022/11/20 18:39:46;;;;;;;30.42;13.48;;;;;;;;;;6208425;28;20399;-82
2022/11/20 18:46:09;;;;;;;52.45;19.05;;;;;;;;;;6217375;28;20417;-81
2022/11/20 18:49:12;;;;;;;;;;;;;;;;;;6211082;28;20073;-82
2022/11/20 18:52:17;;;;;;;25.50;10.48;;;;;;;;;;6211917;28;19964;-82
2022/11/20 18:55:23;;;;;;;33.28;14.10;;;;;;;;;;6214781;28;20521;-82
2022/11/20 18:58:27;;;;;;;50.03;16.13;;;;;;;;;;6204078;28;21113;-81
2022/11/20 19:01:29;;;;;;;37.40;13.93;;;;;;;;;;6189470;28;20103;-82
2022/11/20 19:04:32;;;;;;;30.05;10.35;;;;;;;;;;6207903;28;20057;-82
2022/11/20 19:07:34;;;;;;;30.33;10.75;;;;;;;;;;6205839;28;20053;-81
2022/11/20 19:10:36;;;;;;;29.08;12.02;;;;;;;;;;6212842;28;20099;-81
2022/11/20 19:13:39;;;;;;;106.55;33.35;;;;;;;;;;6201149;28;20469;-82
2022/11/20 19:16:42;;;;;;;45.57;16.60;;;;;;;;;;6221572;28;20053;-83
2022/11/20 19:19:44;;;;;;;76.70;23.17;;;;;;;;;;6207069;28;20418;-83
2022/11/20 19:22:49;;;;;;;67.78;22.45;;;;;;;;;;6213173;28;20117;-81
2022/11/20 19:25:51;;;;;;;126.82;35.42;;;;;;;;;;6205076;28;20134;-83
2022/11/20 19:28:53;;;;;;;25.27;10.63;;;;;;;;;;6233845;28;20687;-82
2022/11/20 19:31:54;;;;;;;29.00;10.35;;;;;;;;;;6209729;28;20150;-82
2022/11/20 19:34:56;;;;;;;87.85;26.35;;;;;;;;;;6191370;28;20476;-84
2022/11/20 19:37:58;;;;;;;39.85;15.57;;;;;;;;;;6218741;28;20053;-83
2022/11/20 19:41:07;;;;;;;58.47;18.45;;;;;;;;;;6202854;28;20326;-81
2022/11/20 19:44:12;;;;;;;35.05;14.55;;;;;;;;;;6206935;28;20504;-83
2022/11/20 19:47:14;;;;;;;88.72;26.60;;;;;;;;;;6203975;28;20179;-82
2022/11/20 19:50:16;;;;;;;27.63;11.88;;;;;;;;;;6213153;28;20144;-83
2022/11/20 19:53:18;;;;;;;38.97;15.13;;;;;;;;;;6205859;28;20045;-82
2022/11/20 19:56:20;;;;;;;25.05;10.45;;;;;;;;;;6203553;28;20053;-82
2022/11/20 19:59:22;;;;;;;10.68;5.28;;;;;;;;;;6199908;28;20097;-81
2022/11/20 20:02:24;;;;;;;11.88;6.18;;;;;;;;;;6238107;28;20053;-82
2022/11/20 20:05:26;;;;;;;11.05;5.10;;;;;;;;;;6217384;28;20437;-83
2022/11/20 20:08:28;;;;;;;8.95;4.03;;;;;;;;;;6212915;28;20414;-82
2022/11/20 20:11:31;;;;;;;6.95;3.63;;;;;;;;;;6205864;28;20199;-82
2022/11/20 20:14:34;;;;;;;4.55;2.88;;;;;;;;;;6210567;28;20058;-81
2022/11/20 20:17:35;;;;;;;8.55;3.78;;;;;;;;;;6205257;28;20188;-81
2022/11/20 20:20:37;;;;;;;5.50;3.58;;;;;;;;;;6201695;28;20056;-81
2022/11/20 20:23:40;;;;;;;10.00;3.80;;;;;;;;;;6187177;28;20136;-81
2022/11/20 20:26:42;;;;;;;5.65;3.17;;;;;;;;;;6189171;28;20106;-82
2022/11/20 20:29:43;;;;;;;4.63;3.22;;;;;;;;;;6200545;28;20144;-82
2022/11/20 20:32:45;;;;;;;8.23;3.65;;;;;;;;;;6207880;28;20076;-80
2022/11/20 20:35:52;;;;;;;5.55;3.40;;;;;;;;;;6199447;28;20049;-82
2022/11/20 20:38:58;;;;;;;7.13;3.72;;;;;;;;;;6193534;28;20052;-83
2022/11/20 20:42:00;;;;;;;7.97;4.10;;;;;;;;;;6196588;28;20056;-81
2022/11/20 20:45:09;;;;;;;6.28;3.80;;;;;;;;;;6195233;28;20260;-82
2022/11/20 20:48:12;;;;;;;7.78;4.25;;;;;;;;;;6203035;28;20363;-80
2022/11/20 20:51:14;;;;;;;12.40;3.65;;;;;;;;;;6196352;28;20060;-81
2022/11/20 20:54:15;;;;;;;7.85;3.88;;;;;;;;;;6201261;28;21412;-80
2022/11/20 20:57:17;;;;;;;8.18;4.45;;;;;;;;;;6201885;28;21023;-80
2022/11/20 21:00:18;;;;;;;7.82;4.38;;;;;;;;;;6207297;28;20062;-81
2022/11/20 21:03:20;;;;;;;8.05;3.90;;;;;;;;;;6206481;28;20045;-80
2022/11/20 21:06:23;;;;;;;6.95;3.20;;;;;;;;;;6203649;28;20187;-80
2022/11/20 21:09:26;;;;;;;6.15;3.28;;;;;;;;;;6207208;28;20065;-80
2022/11/20 21:12:27;;;;;;;6.68;3.22;;;;;;;;;;6212998;28;20071;-80
2022/11/20 21:15:29;;;;;;;5.13;2.78;;;;;;;;;;6199069;28;20076;-81
2022/11/20 21:18:32;;;;;;;6.28;3.22;;;;;;;;;;6205641;28;20395;-81
2022/11/20 21:24:54;;;;;;;4.47;2.83;;;;;;;;;;6228125;28;20057;-80
2022/11/20 21:27:56;;;;;;;7.97;3.55;;;;;;;;;;6213102;28;20137;-81
2022/11/20 21:31:09;;;;;;;11.70;3.78;;;;;;;;;;6215214;28;20061;-81
2022/11/20 21:34:12;;;;;;;7.18;2.80;;;;;;;;;;6215851;28;20244;-82
2022/11/20 21:37:14;;;;;;;9.27;3.03;;;;;;;;;;6246067;28;20049;-82
2022/11/20 21:40:17;;;;;;;5.90;2.70;;;;;;;;;;6221983;28;20103;-81
2022/11/20 21:43:19;;;;;;;3.35;1.88;;;;;;;;;;6206928;28;20257;-82
2022/11/20 21:46:21;;;;;;;6.35;2.10;;;;;;;;;;6209106;28;20053;-82
2022/11/20 21:49:23;;;;;;;5.03;2.33;;;;;;;;;;6217617;28;20573;-83
2022/11/20 21:52:25;;;;;;;4.53;2.33;;;;;;;;;;6211006;28;20067;-82
2022/11/20 21:55:27;;;;;;;5.07;2.30;;;;;;;;;;6233768;28;20100;-82
2022/11/20 21:58:29;;;;;;;5.30;2.13;;;;;;;;;;6216623;28;20576;-81
2022/11/20 22:01:31;;;;;;;3.17;1.40;;;;;;;;;;6226989;28;20053;-81
2022/11/20 22:04:32;;;;;;;2.90;1.85;;;;;;;;;;6210876;28;20526;-82
2022/11/20 22:07:34;;;;;;;2.85;1.40;;;;;;;;;;6198075;28;20049;-82
2022/11/20 22:10:36;;;;;;;3.58;1.25;;;;;;;;;;6209438;28;20041;-82
2022/11/20 22:17:01;;;;;;;2.88;1.50;;;;;;;;;;6215804;28;20042;-81
2022/11/20 22:20:04;;;;;;;5.78;1.50;;;;;;;;;;6210413;28;20038;-82
2022/11/20 22:23:06;;;;;;;3.50;1.38;;;;;;;;;;6212331;28;20037;-80
2022/11/20 22:26:11;;;;;;;3.15;1.23;;;;;;;;;;6216681;28;20041;-81
2022/11/20 22:29:15;;;;;;;2.33;1.17;;;;;;;;;;6212810;28;20052;-82
2022/11/20 22:32:16;;;;;;;3.00;1.30;;;;;;;;;;6215805;28;20771;-82
2022/11/20 22:35:19;;;;;;;3.42;1.45;;;;;;;;;;6213359;28;20055;-81
2022/11/20 22:38:23;;;;;;;3.70;1.93;;;;;;;;;;6219040;28;20607;-81
2022/11/20 22:41:30;;;;;;;2.92;1.00;;;;;;;;;;6214211;28;20049;-82
2022/11/20 22:44:32;;;;;;;3.55;1.35;;;;;;;;;;6215494;28;20517;-82
2022/11/20 22:47:33;;;;;;;2.33;0.82;;;;;;;;;;6218253;28;20041;-82
2022/11/20 22:50:35;;;;;;;3.75;1.80;;;;;;;;;;6214111;28;20041;-82
2022/11/20 22:53:37;;;;;;;2.55;0.98;;;;;;;;;;6213252;28;22356;-82
2022/11/20 22:56:40;;;;;;;5.13;1.40;;;;;;;;;;6211795;28;20449;-82
2022/11/20 22:59:41;;;;;;;5.20;1.20;;;;;;;;;;6225735;28;20065;-82
2022/11/20 23:02:45;;;;;;;1.73;1.02;;;;;;;;;;6201063;28;20050;-82
2022/11/20 23:05:47;;;;;;;3.65;1.80;;;;;;;;;;6202188;28;20119;-81
2022/11/20 23:08:49;;;;;;;4.38;1.42;;;;;;;;;;6212774;28;20050;-81
2022/11/20 23:11:51;;;;;;;1.92;1.10;;;;;;;;;;6201434;28;20413;-82
2022/11/20 23:14:53;;;;;;;4.30;1.48;;;;;;;;;;6211373;28;20053;-81
2022/11/20 23:17:55;;;;;;;3.22;1.42;;;;;;;;;;6205658;28;20069;-80
2022/11/20 23:21:04;;;;;;;5.55;1.17;;;;;;;;;;6209656;28;20125;-80
2022/11/20 23:24:07;;;;;;;5.03;1.45;;;;;;;;;;6206356;28;20057;-81
2022/11/20 23:27:09;;;;;;;3.88;1.23;;;;;;;;;;6205697;28;20167;-81
2022/11/20 23:30:11;;;;;;;2.53;1.98;;;;;;;;;;6206005;28;20511;-80
2022/11/20 23:33:12;;;;;;;3.85;1.10;;;;;;;;;;6212819;28;20053;-80
2022/11/20 23:36:14;;;;;;;3.78;1.30;;;;;;;;;;6212588;28;20051;-81
2022/11/20 23:39:16;;;;;;;5.22;1.20;;;;;;;;;;6218333;28;20057;-81
2022/11/20 23:42:18;;;;;;;4.75;1.10;;;;;;;;;;6211490;28;21516;-81
2022/11/20 23:45:20;;;;;;;2.50;1.23;;;;;;;;;;6218078;28;20049;-81
2022/11/20 23:48:25;;;;;;;6.78;1.20;;;;;;;;;;6216473;28;20117;-81
2022/11/20 23:51:26;;;;;;;0.63;0.63;;;;;;;;;;6211318;28;21293;-82
2022/11/20 23:54:28;;;;;;;2.63;1.30;;;;;;;;;;6213465;28;20578;-82
2022/11/20 23:57:30;;;;;;;3.35;1.65;;;;;;;;;;6214874;28;20044;-80
